sensor_id;sensor_type;location;lat;lon;timestamp;temperature;humidity
24217;DHT22;12356;49.386;8.688;2023-02-13T00:00:39;5.80;51.50
24217;DHT22;12356;49.386;8.688;2023-02-13T00:03:10;5.70;51.20
24217;DHT22;12356;49.386;8.688;2023-02-13T00:05:41;5.60;51.20
24217;DHT22;12356;49.386;8.688;2023-02-13T00:08:11;5.70;50.80
24217;DHT22;12356;49.386;8.688;2023-02-13T00:10:42;5.60;50.10
24217;DHT22;12356;49.386;8.688;2023-02-13T00:13:12;5.60;50.50
24217;DHT22;12356;49.386;8.688;2023-02-13T00:15:43;5.60;50.90
24217;DHT22;12356;49.386;8.688;2023-02-13T00:18:13;5.70;50.70
24217;DHT22;12356;49.386;8.688;2023-02-13T00:20:44;5.60;49.70
24217;DHT22;12356;49.386;8.688;2023-02-13T00:23:15;5.60;49.50
24217;DHT22;12356;49.386;8.688;2023-02-13T00:25:45;5.60;49.50
24217;DHT22;12356;49.386;8.688;2023-02-13T00:28:16;5.60;49.30
24217;DHT22;12356;49.386;8.688;2023-02-13T00:30:46;5.60;49.70
24217;DHT22;12356;49.386;8.688;2023-02-13T00:33:17;5.50;49.30
24217;DHT22;12356;49.386;8.688;2023-02-13T00:35:47;5.50;49.40
24217;DHT22;12356;49.386;8.688;2023-02-13T00:38:18;5.40;49.10
24217;DHT22;12356;49.386;8.688;2023-02-13T00:40:48;5.60;50.10
24217;DHT22;12356;49.386;8.688;2023-02-13T00:43:19;5.40;49.10
24217;DHT22;12356;49.386;8.688;2023-02-13T00:45:49;5.40;50.00
24217;DHT22;12356;49.386;8.688;2023-02-13T00:48:20;5.40;49.70
24217;DHT22;12356;49.386;8.688;2023-02-13T00:50:51;5.50;49.50
24217;DHT22;12356;49.386;8.688;2023-02-13T00:53:22;5.40;49.90
24217;DHT22;12356;49.386;8.688;2023-02-13T00:55:53;5.40;49.30
24217;DHT22;12356;49.386;8.688;2023-02-13T00:58:24;5.40;49.20
24217;DHT22;12356;49.386;8.688;2023-02-13T01:00:55;5.40;49.80
24217;DHT22;12356;49.386;8.688;2023-02-13T01:03:25;5.30;49.20
24217;DHT22;12356;49.386;8.688;2023-02-13T01:05:56;5.20;49.20
24217;DHT22;12356;49.386;8.688;2023-02-13T01:08:27;5.20;49.10
24217;DHT22;12356;49.386;8.688;2023-02-13T01:10:58;5.30;49.30
24217;DHT22;12356;49.386;8.688;2023-02-13T01:13:28;5.30;49.00
24217;DHT22;12356;49.386;8.688;2023-02-13T01:15:59;5.20;48.90
24217;DHT22;12356;49.386;8.688;2023-02-13T01:18:30;5.30;48.40
24217;DHT22;12356;49.386;8.688;2023-02-13T01:21:06;5.20;47.40
24217;DHT22;12356;49.386;8.688;2023-02-13T01:23:37;5.20;47.90
24217;DHT22;12356;49.386;8.688;2023-02-13T01:26:17;5.10;47.90
24217;DHT22;12356;49.386;8.688;2023-02-13T01:28:51;5.10;48.50
24217;DHT22;12356;49.386;8.688;2023-02-13T01:31:23;5.10;48.40
24217;DHT22;12356;49.386;8.688;2023-02-13T01:33:57;5.10;48.40
24217;DHT22;12356;49.386;8.688;2023-02-13T01:36:27;5.10;47.90
24217;DHT22;12356;49.386;8.688;2023-02-13T01:38:58;5.00;48.10
24217;DHT22;12356;49.386;8.688;2023-02-13T01:41:29;5.20;48.40
24217;DHT22;12356;49.386;8.688;2023-02-13T01:44:00;5.20;48.50
24217;DHT22;12356;49.386;8.688;2023-02-13T01:46:37;5.10;47.60
24217;DHT22;12356;49.386;8.688;2023-02-13T01:49:19;5.10;48.00
24217;DHT22;12356;49.386;8.688;2023-02-13T01:51:54;5.10;47.60
24217;DHT22;12356;49.386;8.688;2023-02-13T01:54:27;5.00;47.10
24217;DHT22;12356;49.386;8.688;2023-02-13T01:57:13;5.10;47.40
24217;DHT22;12356;49.386;8.688;2023-02-13T01:59:48;5.10;47.50
24217;DHT22;12356;49.386;8.688;2023-02-13T02:02:21;5.10;46.80
24217;DHT22;12356;49.386;8.688;2023-02-13T02:04:52;4.90;47.10
24217;DHT22;12356;49.386;8.688;2023-02-13T02:07:25;5.00;46.80
24217;DHT22;12356;49.386;8.688;2023-02-13T02:10:00;5.00;46.80
24217;DHT22;12356;49.386;8.688;2023-02-13T02:15:30;4.80;46.00
24217;DHT22;12356;49.386;8.688;2023-02-13T02:18:01;4.80;46.80
24217;DHT22;12356;49.386;8.688;2023-02-13T02:20:50;4.80;47.40
24217;DHT22;12356;49.386;8.688;2023-02-13T02:38:05;4.90;49.00
24217;DHT22;12356;49.386;8.688;2023-02-13T02:43:34;4.80;48.90
24217;DHT22;12356;49.386;8.688;2023-02-13T02:46:24;4.80;49.50
24217;DHT22;12356;49.386;8.688;2023-02-13T02:49:12;4.80;49.50
24217;DHT22;12356;49.386;8.688;2023-02-13T02:52:13;4.80;49.00
24217;DHT22;12356;49.386;8.688;2023-02-13T02:55:01;4.90;48.60
24217;DHT22;12356;49.386;8.688;2023-02-13T02:57:54;4.80;48.50
24217;DHT22;12356;49.386;8.688;2023-02-13T03:00:48;4.90;48.70
24217;DHT22;12356;49.386;8.688;2023-02-13T03:03:39;4.90;48.30
24217;DHT22;12356;49.386;8.688;2023-02-13T03:06:39;4.90;47.90
24217;DHT22;12356;49.386;8.688;2023-02-13T03:09:18;4.80;48.60
24217;DHT22;12356;49.386;8.688;2023-02-13T03:12:24;4.80;49.60
24217;DHT22;12356;49.386;8.688;2023-02-13T03:15:14;4.70;49.50
24217;DHT22;12356;49.386;8.688;2023-02-13T03:17:45;4.70;49.90
24217;DHT22;12356;49.386;8.688;2023-02-13T03:29:24;4.70;48.50
24217;DHT22;12356;49.386;8.688;2023-02-13T03:35:08;4.70;47.50
24217;DHT22;12356;49.386;8.688;2023-02-13T03:38:07;4.70;46.80
24217;DHT22;12356;49.386;8.688;2023-02-13T03:40:57;4.70;47.20
24217;DHT22;12356;49.386;8.688;2023-02-13T03:44:17;4.70;47.20
24217;DHT22;12356;49.386;8.688;2023-02-13T03:46:50;4.60;46.70
24217;DHT22;12356;49.386;8.688;2023-02-13T03:49:43;4.60;46.70
24217;DHT22;12356;49.386;8.688;2023-02-13T03:52:54;4.50;46.70
24217;DHT22;12356;49.386;8.688;2023-02-13T03:55:30;4.50;48.10
24217;DHT22;12356;49.386;8.688;2023-02-13T03:58:24;4.50;47.10
24217;DHT22;12356;49.386;8.688;2023-02-13T04:01:17;4.40;48.10
24217;DHT22;12356;49.386;8.688;2023-02-13T04:03:53;4.40;47.50
24217;DHT22;12356;49.386;8.688;2023-02-13T04:06:45;4.50;47.00
24217;DHT22;12356;49.386;8.688;2023-02-13T04:09:17;4.40;47.70
24217;DHT22;12356;49.386;8.688;2023-02-13T04:12:18;4.40;47.70
24217;DHT22;12356;49.386;8.688;2023-02-13T04:14:58;4.50;47.50
24217;DHT22;12356;49.386;8.688;2023-02-13T04:17:35;4.40;47.70
24217;DHT22;12356;49.386;8.688;2023-02-13T04:20:08;4.50;48.00
24217;DHT22;12356;49.386;8.688;2023-02-13T04:22:44;4.40;47.40
24217;DHT22;12356;49.386;8.688;2023-02-13T04:25:16;4.40;46.90
24217;DHT22;12356;49.386;8.688;2023-02-13T04:27:47;4.40;46.40
24217;DHT22;12356;49.386;8.688;2023-02-13T04:30:17;4.40;46.40
24217;DHT22;12356;49.386;8.688;2023-02-13T04:32:48;4.50;46.90
24217;DHT22;12356;49.386;8.688;2023-02-13T04:35:20;4.40;45.70
24217;DHT22;12356;49.386;8.688;2023-02-13T04:37:51;4.40;45.30
24217;DHT22;12356;49.386;8.688;2023-02-13T04:40:21;4.40;45.30
24217;DHT22;12356;49.386;8.688;2023-02-13T04:42:52;4.30;45.50
24217;DHT22;12356;49.386;8.688;2023-02-13T04:45:23;4.30;45.30
24217;DHT22;12356;49.386;8.688;2023-02-13T04:47:54;4.30;45.10
24217;DHT22;12356;49.386;8.688;2023-02-13T04:50:25;4.20;45.70
24217;DHT22;12356;49.386;8.688;2023-02-13T04:52:57;4.30;45.80
24217;DHT22;12356;49.386;8.688;2023-02-13T04:55:27;4.20;45.80
24217;DHT22;12356;49.386;8.688;2023-02-13T04:57:58;4.20;45.30
24217;DHT22;12356;49.386;8.688;2023-02-13T05:00:29;4.20;44.70
24217;DHT22;12356;49.386;8.688;2023-02-13T05:03:07;4.10;44.90
24217;DHT22;12356;49.386;8.688;2023-02-13T05:05:39;4.10;44.40
24217;DHT22;12356;49.386;8.688;2023-02-13T05:08:10;4.00;44.60
24217;DHT22;12356;49.386;8.688;2023-02-13T05:10:40;4.10;45.30
24217;DHT22;12356;49.386;8.688;2023-02-13T05:13:11;4.10;45.00
24217;DHT22;12356;49.386;8.688;2023-02-13T05:15:41;4.10;44.20
24217;DHT22;12356;49.386;8.688;2023-02-13T05:18:12;4.00;44.00
24217;DHT22;12356;49.386;8.688;2023-02-13T05:20:43;4.00;45.20
24217;DHT22;12356;49.386;8.688;2023-02-13T05:23:14;4.00;45.00
24217;DHT22;12356;49.386;8.688;2023-02-13T05:25:53;3.90;45.20
24217;DHT22;12356;49.386;8.688;2023-02-13T05:28:24;4.00;45.70
24217;DHT22;12356;49.386;8.688;2023-02-13T05:31:13;4.00;45.30
24217;DHT22;12356;49.386;8.688;2023-02-13T05:33:44;4.00;45.00
24217;DHT22;12356;49.386;8.688;2023-02-13T05:36:14;4.00;44.70
24217;DHT22;12356;49.386;8.688;2023-02-13T05:38:45;4.00;44.60
24217;DHT22;12356;49.386;8.688;2023-02-13T05:41:15;3.90;45.00
24217;DHT22;12356;49.386;8.688;2023-02-13T05:43:46;3.90;44.90
24217;DHT22;12356;49.386;8.688;2023-02-13T05:46:17;3.90;44.70
24217;DHT22;12356;49.386;8.688;2023-02-13T05:48:47;3.80;44.50
24217;DHT22;12356;49.386;8.688;2023-02-13T05:51:19;3.80;45.20
24217;DHT22;12356;49.386;8.688;2023-02-13T05:53:50;3.70;45.80
24217;DHT22;12356;49.386;8.688;2023-02-13T05:56:20;3.70;45.40
24217;DHT22;12356;49.386;8.688;2023-02-13T05:58:54;3.70;46.10
24217;DHT22;12356;49.386;8.688;2023-02-13T06:01:25;3.70;45.50
24217;DHT22;12356;49.386;8.688;2023-02-13T06:03:55;3.70;45.10
24217;DHT22;12356;49.386;8.688;2023-02-13T06:06:26;3.70;45.00
24217;DHT22;12356;49.386;8.688;2023-02-13T06:08:57;3.70;45.50
24217;DHT22;12356;49.386;8.688;2023-02-13T06:11:27;3.80;45.30
24217;DHT22;12356;49.386;8.688;2023-02-13T06:13:58;3.70;44.40
24217;DHT22;12356;49.386;8.688;2023-02-13T06:16:28;3.80;45.00
24217;DHT22;12356;49.386;8.688;2023-02-13T06:19:01;3.70;44.50
24217;DHT22;12356;49.386;8.688;2023-02-13T06:21:32;3.70;44.80
24217;DHT22;12356;49.386;8.688;2023-02-13T06:24:07;3.70;45.20
24217;DHT22;12356;49.386;8.688;2023-02-13T06:26:38;3.70;44.90
24217;DHT22;12356;49.386;8.688;2023-02-13T06:29:08;3.70;45.90
24217;DHT22;12356;49.386;8.688;2023-02-13T06:31:40;3.70;45.60
24217;DHT22;12356;49.386;8.688;2023-02-13T06:34:11;3.60;45.30
24217;DHT22;12356;49.386;8.688;2023-02-13T06:36:41;3.60;46.00
24217;DHT22;12356;49.386;8.688;2023-02-13T06:39:12;3.60;45.50
24217;DHT22;12356;49.386;8.688;2023-02-13T06:41:42;3.60;45.70
24217;DHT22;12356;49.386;8.688;2023-02-13T06:44:13;3.60;46.20
24217;DHT22;12356;49.386;8.688;2023-02-13T06:46:43;3.60;46.00
24217;DHT22;12356;49.386;8.688;2023-02-13T06:49:14;3.60;46.80
24217;DHT22;12356;49.386;8.688;2023-02-13T06:51:44;3.70;46.90
24217;DHT22;12356;49.386;8.688;2023-02-13T06:54:15;3.70;46.70
24217;DHT22;12356;49.386;8.688;2023-02-13T06:56:45;3.70;46.30
24217;DHT22;12356;49.386;8.688;2023-02-13T06:59:16;3.60;46.20
24217;DHT22;12356;49.386;8.688;2023-02-13T07:01:46;3.60;46.90
24217;DHT22;12356;49.386;8.688;2023-02-13T07:04:17;3.60;47.40
24217;DHT22;12356;49.386;8.688;2023-02-13T07:06:47;3.70;48.60
24217;DHT22;12356;49.386;8.688;2023-02-13T07:09:18;3.70;47.90
24217;DHT22;12356;49.386;8.688;2023-02-13T07:11:49;3.80;48.70
24217;DHT22;12356;49.386;8.688;2023-02-13T07:14:20;3.80;50.20
24217;DHT22;12356;49.386;8.688;2023-02-13T07:16:50;3.80;51.60
24217;DHT22;12356;49.386;8.688;2023-02-13T07:19:21;3.80;51.60
24217;DHT22;12356;49.386;8.688;2023-02-13T07:21:51;3.90;52.00
24217;DHT22;12356;49.386;8.688;2023-02-13T07:24:22;3.90;52.20
24217;DHT22;12356;49.386;8.688;2023-02-13T07:26:52;3.80;51.60
24217;DHT22;12356;49.386;8.688;2023-02-13T07:29:23;3.90;51.70
24217;DHT22;12356;49.386;8.688;2023-02-13T07:31:54;3.90;52.20
24217;DHT22;12356;49.386;8.688;2023-02-13T07:34:24;3.80;51.70
24217;DHT22;12356;49.386;8.688;2023-02-13T07:36:55;3.80;51.30
24217;DHT22;12356;49.386;8.688;2023-02-13T07:39:25;3.80;51.30
24217;DHT22;12356;49.386;8.688;2023-02-13T07:41:56;3.70;51.10
24217;DHT22;12356;49.386;8.688;2023-02-13T07:44:26;3.80;51.70
24217;DHT22;12356;49.386;8.688;2023-02-13T07:46:57;3.80;51.60
24217;DHT22;12356;49.386;8.688;2023-02-13T07:49:27;3.90;51.10
24217;DHT22;12356;49.386;8.688;2023-02-13T07:51:58;3.90;51.30
24217;DHT22;12356;49.386;8.688;2023-02-13T07:54:29;3.90;50.20
24217;DHT22;12356;49.386;8.688;2023-02-13T07:56:59;3.90;50.00
24217;DHT22;12356;49.386;8.688;2023-02-13T07:59:30;3.90;50.00
24217;DHT22;12356;49.386;8.688;2023-02-13T08:02:01;3.90;50.00
24217;DHT22;12356;49.386;8.688;2023-02-13T08:04:31;3.90;49.60
24217;DHT22;12356;49.386;8.688;2023-02-13T08:07:02;4.00;50.20
24217;DHT22;12356;49.386;8.688;2023-02-13T08:09:32;4.00;50.20
24217;DHT22;12356;49.386;8.688;2023-02-13T08:12:21;4.00;50.70
24217;DHT22;12356;49.386;8.688;2023-02-13T08:14:52;4.00;51.00
24217;DHT22;12356;49.386;8.688;2023-02-13T08:17:23;4.00;51.30
24217;DHT22;12356;49.386;8.688;2023-02-13T08:19:53;4.00;51.80
24217;DHT22;12356;49.386;8.688;2023-02-13T08:22:24;4.10;52.50
24217;DHT22;12356;49.386;8.688;2023-02-13T08:24:55;4.10;53.10
24217;DHT22;12356;49.386;8.688;2023-02-13T08:27:25;4.20;52.60
24217;DHT22;12356;49.386;8.688;2023-02-13T08:29:58;4.30;52.80
24217;DHT22;12356;49.386;8.688;2023-02-13T08:32:28;4.30;54.00
24217;DHT22;12356;49.386;8.688;2023-02-13T08:34:59;4.30;54.40
24217;DHT22;12356;49.386;8.688;2023-02-13T08:37:29;4.40;54.20
24217;DHT22;12356;49.386;8.688;2023-02-13T08:40:00;4.50;54.80
24217;DHT22;12356;49.386;8.688;2023-02-13T08:42:30;4.50;54.40
24217;DHT22;12356;49.386;8.688;2023-02-13T08:45:01;4.60;55.10
24217;DHT22;12356;49.386;8.688;2023-02-13T08:47:32;4.60;55.00
24217;DHT22;12356;49.386;8.688;2023-02-13T08:50:03;4.70;54.60
24217;DHT22;12356;49.386;8.688;2023-02-13T08:52:34;4.70;54.10
24217;DHT22;12356;49.386;8.688;2023-02-13T08:55:05;4.80;54.40
24217;DHT22;12356;49.386;8.688;2023-02-13T08:57:35;4.90;54.20
24217;DHT22;12356;49.386;8.688;2023-02-13T09:00:06;4.90;54.20
24217;DHT22;12356;49.386;8.688;2023-02-13T09:02:37;5.00;54.70
24217;DHT22;12356;49.386;8.688;2023-02-13T09:05:08;5.00;54.90
24217;DHT22;12356;49.386;8.688;2023-02-13T09:07:38;5.10;55.40
24217;DHT22;12356;49.386;8.688;2023-02-13T09:10:09;5.10;55.00
24217;DHT22;12356;49.386;8.688;2023-02-13T09:12:39;5.20;54.70
24217;DHT22;12356;49.386;8.688;2023-02-13T09:15:10;5.30;55.00
24217;DHT22;12356;49.386;8.688;2023-02-13T09:17:40;5.40;54.80
24217;DHT22;12356;49.386;8.688;2023-02-13T09:20:12;5.50;54.00
24217;DHT22;12356;49.386;8.688;2023-02-13T09:22:43;5.50;53.60
24217;DHT22;12356;49.386;8.688;2023-02-13T09:25:13;5.60;53.60
24217;DHT22;12356;49.386;8.688;2023-02-13T09:27:44;5.60;53.20
24217;DHT22;12356;49.386;8.688;2023-02-13T09:30:15;5.70;53.10
24217;DHT22;12356;49.386;8.688;2023-02-13T09:32:53;5.80;53.90
24217;DHT22;12356;49.386;8.688;2023-02-13T09:35:24;5.90;53.40
24217;DHT22;12356;49.386;8.688;2023-02-13T09:37:54;5.90;53.80
24217;DHT22;12356;49.386;8.688;2023-02-13T09:40:34;6.00;53.40
24217;DHT22;12356;49.386;8.688;2023-02-13T09:43:34;6.10;53.40
24217;DHT22;12356;49.386;8.688;2023-02-13T09:46:11;6.20;51.80
24217;DHT22;12356;49.386;8.688;2023-02-13T09:48:47;6.30;50.40
24217;DHT22;12356;49.386;8.688;2023-02-13T09:51:20;6.50;49.80
24217;DHT22;12356;49.386;8.688;2023-02-13T09:53:55;6.60;48.50
24217;DHT22;12356;49.386;8.688;2023-02-13T09:56:39;6.60;46.40
24217;DHT22;12356;49.386;8.688;2023-02-13T09:59:55;6.60;45.80
24217;DHT22;12356;49.386;8.688;2023-02-13T10:02:49;6.80;46.30
24217;DHT22;12356;49.386;8.688;2023-02-13T10:17:00;7.10;43.60
24217;DHT22;12356;49.386;8.688;2023-02-13T10:19:35;7.20;43.50
24217;DHT22;12356;49.386;8.688;2023-02-13T10:22:17;7.30;43.20
24217;DHT22;12356;49.386;8.688;2023-02-13T10:25:01;7.30;42.20
24217;DHT22;12356;49.386;8.688;2023-02-13T10:27:36;7.40;40.60
24217;DHT22;12356;49.386;8.688;2023-02-13T10:30:30;7.50;38.70
24217;DHT22;12356;49.386;8.688;2023-02-13T10:33:09;7.50;38.50
24217;DHT22;12356;49.386;8.688;2023-02-13T10:36:05;7.60;36.60
24217;DHT22;12356;49.386;8.688;2023-02-13T10:38:59;7.60;37.10
24217;DHT22;12356;49.386;8.688;2023-02-13T10:41:44;7.60;36.40
24217;DHT22;12356;49.386;8.688;2023-02-13T10:44:22;7.80;36.80
24217;DHT22;12356;49.386;8.688;2023-02-13T10:47:02;7.80;35.70
24217;DHT22;12356;49.386;8.688;2023-02-13T10:52:38;7.90;36.40
24217;DHT22;12356;49.386;8.688;2023-02-13T10:58:08;8.10;35.60
24217;DHT22;12356;49.386;8.688;2023-02-13T11:03:34;8.10;35.60
24217;DHT22;12356;49.386;8.688;2023-02-13T11:06:07;8.20;35.10
24217;DHT22;12356;49.386;8.688;2023-02-13T11:08:40;8.20;35.80
24217;DHT22;12356;49.386;8.688;2023-02-13T11:11:36;8.30;35.30
24217;DHT22;12356;49.386;8.688;2023-02-13T11:14:10;8.40;34.10
24217;DHT22;12356;49.386;8.688;2023-02-13T11:22:15;8.60;33.30
24217;DHT22;12356;49.386;8.688;2023-02-13T11:25:03;8.60;31.20
24217;DHT22;12356;49.386;8.688;2023-02-13T11:27:37;8.70;30.90
24217;DHT22;12356;49.386;8.688;2023-02-13T11:33:22;8.70;30.00
24217;DHT22;12356;49.386;8.688;2023-02-13T11:36:04;8.80;31.00
24217;DHT22;12356;49.386;8.688;2023-02-13T11:38:35;8.80;30.10
24217;DHT22;12356;49.386;8.688;2023-02-13T11:41:14;8.90;29.70
24217;DHT22;12356;49.386;8.688;2023-02-13T11:43:48;8.90;29.30
24217;DHT22;12356;49.386;8.688;2023-02-13T11:46:24;8.90;30.10
24217;DHT22;12356;49.386;8.688;2023-02-13T11:49:02;9.00;29.70
24217;DHT22;12356;49.386;8.688;2023-02-13T11:51:51;9.00;29.50
24217;DHT22;12356;49.386;8.688;2023-02-13T11:57:01;9.00;29.00
24217;DHT22;12356;49.386;8.688;2023-02-13T11:59:39;9.00;28.80
24217;DHT22;12356;49.386;8.688;2023-02-13T12:05:15;9.20;28.80
24217;DHT22;12356;49.386;8.688;2023-02-13T12:07:46;9.30;29.50
24217;DHT22;12356;49.386;8.688;2023-02-13T12:10:23;9.40;29.40
24217;DHT22;12356;49.386;8.688;2023-02-13T12:15:29;9.40;28.90
24217;DHT22;12356;49.386;8.688;2023-02-13T12:18:18;9.50;28.00
24217;DHT22;12356;49.386;8.688;2023-02-13T12:23:57;9.60;27.70
24217;DHT22;12356;49.386;8.688;2023-02-13T12:26:52;9.70;27.60
24217;DHT22;12356;49.386;8.688;2023-02-13T12:29:44;9.70;27.90
24217;DHT22;12356;49.386;8.688;2023-02-13T12:32:19;9.80;26.90
24217;DHT22;12356;49.386;8.688;2023-02-13T12:43:58;9.90;26.60
24217;DHT22;12356;49.386;8.688;2023-02-13T12:58:38;10.20;24.90
24217;DHT22;12356;49.386;8.688;2023-02-13T13:07:00;10.20;24.00
24217;DHT22;12356;49.386;8.688;2023-02-13T13:12:16;10.40;23.70
24217;DHT22;12356;49.386;8.688;2023-02-13T13:18:24;10.40;24.50
24217;DHT22;12356;49.386;8.688;2023-02-13T13:24:03;10.50;23.40
24217;DHT22;12356;49.386;8.688;2023-02-13T13:26:39;10.60;24.00
24217;DHT22;12356;49.386;8.688;2023-02-13T13:29:39;10.60;23.90
24217;DHT22;12356;49.386;8.688;2023-02-13T13:32:16;10.70;23.50
24217;DHT22;12356;49.386;8.688;2023-02-13T13:34:49;10.70;23.60
24217;DHT22;12356;49.386;8.688;2023-02-13T13:37:31;10.80;23.20
24217;DHT22;12356;49.386;8.688;2023-02-13T13:40:33;10.70;24.00
24217;DHT22;12356;49.386;8.688;2023-02-13T13:49:11;10.80;22.80
24217;DHT22;12356;49.386;8.688;2023-02-13T13:51:46;10.80;22.90
24217;DHT22;12356;49.386;8.688;2023-02-13T13:54:20;10.90;23.20
24217;DHT22;12356;49.386;8.688;2023-02-13T14:07:39;10.90;22.30
24217;DHT22;12356;49.386;8.688;2023-02-13T14:13:00;11.00;22.10
24217;DHT22;12356;49.386;8.688;2023-02-13T14:20:53;11.10;21.60
24217;DHT22;12356;49.386;8.688;2023-02-13T14:23:45;11.20;22.20
24217;DHT22;12356;49.386;8.688;2023-02-13T14:26:37;11.20;23.20
24217;DHT22;12356;49.386;8.688;2023-02-13T14:29:29;11.20;22.60
24217;DHT22;12356;49.386;8.688;2023-02-13T14:32:36;11.30;21.90
24217;DHT22;12356;49.386;8.688;2023-02-13T14:35:22;11.30;21.60
24217;DHT22;12356;49.386;8.688;2023-02-13T14:38:01;11.40;22.10
24217;DHT22;12356;49.386;8.688;2023-02-13T14:40:47;11.40;21.70
24217;DHT22;12356;49.386;8.688;2023-02-13T14:49:01;11.40;20.30
24217;DHT22;12356;49.386;8.688;2023-02-13T14:51:54;11.40;21.00
24217;DHT22;12356;49.386;8.688;2023-02-13T14:54:41;11.40;20.10
24217;DHT22;12356;49.386;8.688;2023-02-13T14:57:18;11.40;20.30
24217;DHT22;12356;49.386;8.688;2023-02-13T14:59:52;11.50;20.30
24217;DHT22;12356;49.386;8.688;2023-02-13T15:02:27;11.60;20.30
24217;DHT22;12356;49.386;8.688;2023-02-13T15:05:06;11.50;20.10
24217;DHT22;12356;49.386;8.688;2023-02-13T15:15:57;11.50;20.10
24217;DHT22;12356;49.386;8.688;2023-02-13T15:18:36;11.40;20.30
24217;DHT22;12356;49.386;8.688;2023-02-13T15:21:20;11.40;19.60
24217;DHT22;12356;49.386;8.688;2023-02-13T15:23:52;11.40;19.60
24217;DHT22;12356;49.386;8.688;2023-02-13T15:26:25;11.30;21.20
24217;DHT22;12356;49.386;8.688;2023-02-13T15:29:17;11.30;20.50
24217;DHT22;12356;49.386;8.688;2023-02-13T15:31:48;11.30;19.70
24217;DHT22;12356;49.386;8.688;2023-02-13T15:34:25;11.20;19.90
24217;DHT22;12356;49.386;8.688;2023-02-13T15:36:55;11.20;20.10
24217;DHT22;12356;49.386;8.688;2023-02-13T15:39:29;11.20;19.80
24217;DHT22;12356;49.386;8.688;2023-02-13T15:42:01;11.20;19.10
24217;DHT22;12356;49.386;8.688;2023-02-13T15:44:34;11.30;15.90
24217;DHT22;12356;49.386;8.688;2023-02-13T15:47:13;11.30;16.20
24217;DHT22;12356;49.386;8.688;2023-02-13T15:49:46;11.30;15.70
24217;DHT22;12356;49.386;8.688;2023-02-13T15:52:30;11.30;15.60
24217;DHT22;12356;49.386;8.688;2023-02-13T15:55:02;11.30;15.20
24217;DHT22;12356;49.386;8.688;2023-02-13T15:57:33;11.30;14.30
24217;DHT22;12356;49.386;8.688;2023-02-13T16:00:04;11.40;15.10
24217;DHT22;12356;49.386;8.688;2023-02-13T16:02:42;11.30;14.40
24217;DHT22;12356;49.386;8.688;2023-02-13T16:05:15;11.20;16.60
24217;DHT22;12356;49.386;8.688;2023-02-13T16:16:48;10.80;16.30
24217;DHT22;12356;49.386;8.688;2023-02-13T16:19:28;10.90;15.80
24217;DHT22;12356;49.386;8.688;2023-02-13T16:25:03;10.80;16.80
24217;DHT22;12356;49.386;8.688;2023-02-13T16:27:35;10.80;16.70
24217;DHT22;12356;49.386;8.688;2023-02-13T16:30:14;10.70;16.40
24217;DHT22;12356;49.386;8.688;2023-02-13T16:32:49;10.70;15.90
24217;DHT22;12356;49.386;8.688;2023-02-13T16:35:31;10.70;16.30
24217;DHT22;12356;49.386;8.688;2023-02-13T16:38:33;10.60;17.20
24217;DHT22;12356;49.386;8.688;2023-02-13T16:43:56;10.50;17.90
24217;DHT22;12356;49.386;8.688;2023-02-13T16:46:41;10.40;18.90
24217;DHT22;12356;49.386;8.688;2023-02-13T16:49:19;10.30;18.90
24217;DHT22;12356;49.386;8.688;2023-02-13T16:52:00;10.20;19.80
24217;DHT22;12356;49.386;8.688;2023-02-13T16:57:32;10.00;20.10
24217;DHT22;12356;49.386;8.688;2023-02-13T17:00:20;10.00;20.60
24217;DHT22;12356;49.386;8.688;2023-02-13T17:02:51;9.90;21.80
24217;DHT22;12356;49.386;8.688;2023-02-13T17:05:24;9.90;21.90
24217;DHT22;12356;49.386;8.688;2023-02-13T17:07:55;9.70;23.00
24217;DHT22;12356;49.386;8.688;2023-02-13T17:10:33;9.60;24.30
24217;DHT22;12356;49.386;8.688;2023-02-13T17:15:43;9.40;24.60
24217;DHT22;12356;49.386;8.688;2023-02-13T17:18:14;9.30;25.40
24217;DHT22;12356;49.386;8.688;2023-02-13T17:20:44;9.10;26.10
24217;DHT22;12356;49.386;8.688;2023-02-13T17:23:17;9.10;26.40
24217;DHT22;12356;49.386;8.688;2023-02-13T17:25:50;9.00;27.30
24217;DHT22;12356;49.386;8.688;2023-02-13T17:28:24;8.90;27.40
24217;DHT22;12356;49.386;8.688;2023-02-13T17:30:57;8.80;27.00
24217;DHT22;12356;49.386;8.688;2023-02-13T17:33:30;8.70;27.30
24217;DHT22;12356;49.386;8.688;2023-02-13T17:36:01;8.70;28.00
24217;DHT22;12356;49.386;8.688;2023-02-13T17:38:31;8.80;27.50
24217;DHT22;12356;49.386;8.688;2023-02-13T17:41:02;8.70;27.50
24217;DHT22;12356;49.386;8.688;2023-02-13T17:43:33;8.60;28.20
24217;DHT22;12356;49.386;8.688;2023-02-13T17:46:04;8.40;28.60
24217;DHT22;12356;49.386;8.688;2023-02-13T17:48:34;8.40;28.90
24217;DHT22;12356;49.386;8.688;2023-02-13T17:51:05;8.40;29.00
24217;DHT22;12356;49.386;8.688;2023-02-13T17:53:35;8.40;28.40
24217;DHT22;12356;49.386;8.688;2023-02-13T17:56:06;8.30;28.70
24217;DHT22;12356;49.386;8.688;2023-02-13T17:58:37;8.30;28.70
24217;DHT22;12356;49.386;8.688;2023-02-13T18:01:09;8.30;29.10
24217;DHT22;12356;49.386;8.688;2023-02-13T18:03:40;8.30;28.40
24217;DHT22;12356;49.386;8.688;2023-02-13T18:06:11;8.30;28.70
24217;DHT22;12356;49.386;8.688;2023-02-13T18:08:42;8.30;28.30
24217;DHT22;12356;49.386;8.688;2023-02-13T18:11:13;8.40;28.30
24217;DHT22;12356;49.386;8.688;2023-02-13T18:13:43;8.30;28.90
24217;DHT22;12356;49.386;8.688;2023-02-13T18:16:17;8.30;28.40
24217;DHT22;12356;49.386;8.688;2023-02-13T18:18:48;8.30;27.20
24217;DHT22;12356;49.386;8.688;2023-02-13T18:21:21;8.40;26.50
24217;DHT22;12356;49.386;8.688;2023-02-13T18:23:52;8.50;26.00
24217;DHT22;12356;49.386;8.688;2023-02-13T18:26:23;8.50;25.20
24217;DHT22;12356;49.386;8.688;2023-02-13T18:28:53;8.70;23.50
24217;DHT22;12356;49.386;8.688;2023-02-13T18:31:24;8.70;24.30
24217;DHT22;12356;49.386;8.688;2023-02-13T18:33:54;8.70;24.30
24217;DHT22;12356;49.386;8.688;2023-02-13T18:36:25;8.70;22.60
24217;DHT22;12356;49.386;8.688;2023-02-13T18:38:56;8.80;22.50
24217;DHT22;12356;49.386;8.688;2023-02-13T18:41:26;8.90;22.30
24217;DHT22;12356;49.386;8.688;2023-02-13T18:43:57;8.90;22.10
24217;DHT22;12356;49.386;8.688;2023-02-13T18:46:27;8.90;21.80
24217;DHT22;12356;49.386;8.688;2023-02-13T18:48:58;8.90;21.70
24217;DHT22;12356;49.386;8.688;2023-02-13T18:51:29;8.90;22.10
24217;DHT22;12356;49.386;8.688;2023-02-13T18:53:59;8.90;22.40
24217;DHT22;12356;49.386;8.688;2023-02-13T18:56:30;8.90;21.60
24217;DHT22;12356;49.386;8.688;2023-02-13T18:59:00;8.90;21.10
24217;DHT22;12356;49.386;8.688;2023-02-13T19:01:31;8.90;21.30
24217;DHT22;12356;49.386;8.688;2023-02-13T19:04:03;8.90;20.90
24217;DHT22;12356;49.386;8.688;2023-02-13T19:06:33;8.90;21.00
24217;DHT22;12356;49.386;8.688;2023-02-13T19:09:07;8.90;21.40
24217;DHT22;12356;49.386;8.688;2023-02-13T19:11:38;8.80;21.50
24217;DHT22;12356;49.386;8.688;2023-02-13T19:14:11;8.80;21.20
24217;DHT22;12356;49.386;8.688;2023-02-13T19:16:42;8.80;21.50
24217;DHT22;12356;49.386;8.688;2023-02-13T19:19:13;8.70;21.30
24217;DHT22;12356;49.386;8.688;2023-02-13T19:21:43;8.70;21.50